EGGWLFAT

Guest
Details From EGGW - London Luton
To LFAT - Le Touquet Paris Plage
Flight Number -
Tags Real Decoded
Created
Modified
Stats Distance 112 nm / 207 km
Max Altitude 0 ft / 0 m
Waypoints 5
Social Downloads 16
Likes 0
Share VATSIM

Download

Looking for another format? Having issues loading an existing format? Contact us
Advertisement - Login to hide

Notes

Decoded

Route

EGGW LAM DET LYD LFAT

ID Type Via Altitude Latitude Longitude Leg Dist Tot Dist Heading (true) Name
O EGGW APT - 0 ft / 0 m 51.87202˚ -0.38355˚ - 0 nm - -
LAM VOR - 0 ft / 0 m 51.64611˚ 0.15167˚ 24 nm 24 nm 124° / 125° LAMBOURNE VOR-DME
DET VOR - 0 ft / 0 m 51.30389˚ 0.59722˚ 26 nm 50 nm 141° / 141° DETLING VOR-DME
LYD VOR - 0 ft / 0 m 50.99972˚ 0.87861˚ 21 nm 71 nm 150° / 150° LYDD VOR-DME
O LFAT APT - 0 ft / 0 m 50.52398˚ 1.61247˚ 39 nm 111 nm 135° / 136° -

Altitude Profile

Advertisement - Login to hide

EGGW

Details ICAO EGGW (LTN)
Name London Luton
Region United Kingdom
Timezone Europe/London (UTC+0.0)
Stats Elevation 526 ft / 160 m (AMSL)
Location 51.874629° -0.368450°
Runways 1
Magnetic Variation 0.573° W

METAR

EGGW 150120Z AUTO 26014KT 9999 FEW045 02/00 Q0988

Decode

TAF

TAF EGGW 142258Z 1500/1524 26009KT 9999 SCT030 TEMPO 1500/1515 7000 SHRA BKN008 PROB30 TEMPO 1504/1511 3000 SHRASN BKN003 BECMG 1507/1510 34010KT PROB30 TEMPO 1511/1518 35015G25KT PROB30 TEMPO 1515/1520 7000 SHRA BKN012

Decode

Departure Runways

ID Width Length Bearing (true) Bearing (mag) Surface Threshold Offset Overrun Length
08 151 ft / 46 m 7,066 ft / 2,154 m 74.35° 74.92° Asphalt 0 ft / 0 m 200 ft / 61 m
26 151 ft / 46 m 7,066 ft / 2,154 m 254.38° 254.95° Asphalt 272 ft / 83 m 0 ft / 0 m

LFAT

Details ICAO LFAT (LTQ)
Name Le Touquet Paris Plage
Region France
Timezone Europe/Paris (UTC+1.0)
Stats Elevation 35 ft / 11 m (AMSL)
Location 50.515857° 1.622729°
Runways 2
Magnetic Variation 0.235° E

METAR

LFAT 150100Z AUTO 21011KT 9000 -RA BKN010/// BKN016/// OVC030/// ///CB 05/04 Q0990

Decode

TAF

Not found

Destination Runways

ID Width Length Bearing (true) Bearing (mag) Surface Threshold Offset Overrun Length
07 120 ft / 37 m 1,949 ft / 594 m 60.65° 60.41° Asphalt 0 ft / 0 m 0 ft / 0 m
14 131 ft / 40 m 6,050 ft / 1,844 m 133.54° 133.30° Asphalt 0 ft / 0 m 0 ft / 0 m
25 120 ft / 37 m 1,949 ft / 594 m 240.65° 240.41° Asphalt 750 ft / 229 m 0 ft / 0 m
32 131 ft / 40 m 6,050 ft / 1,844 m 313.56° 313.32° Asphalt 492 ft / 150 m 0 ft / 0 m

Approach Navaids

Runway Type Ident Frequency Range Bearing (true) Bearing (mag) Slope Elevation
14 Localiser LT 110.15 MHz 27 nm / 50 km 134.00° 133.76° - 35 ft / 11 m (AMSL)
14 Glidescope LT 110.15 MHz 27 nm / 50 km 134.00° 133.76° 3.00° 35 ft / 11 m (AMSL)
14 DME LT 110.15 MHz 27 nm / 50 km - - - 35 ft / 11 m (AMSL)

Popular Alternatives